Latest Weather Observations for Charles Point

IDD60901

Issued at 9:31 pm CST Monday 25 July 2016 (issued every 10 minutes, with the page automatically refreshed every 10 minutes)

About weather observations | Map of Darwin area stations | Latest observations for Darwin area | Other Formats
Station Details ID: 014031 Name: CHARLES POINT Lat: -12.39 Lon: 130.63 Height: 14.0 m
Data from the previous 72 hours. | See also: Recent months for locations in Northern Territory
Date/Time
CST
Temp
°C
App
Temp
°C
Dew
Point
°C
Rel
Hum
%
Delta-T
°C
Wind Press
QNH
hPa
Press
MSL
hPa
Rain since
9am
mm
Dir  Spd
km/h
Gust
km/h
Spd
kts
Gust
kts
25/09:30pm 23.1 26.2 21.0 88 1.4 W 6 7 3 4 1012.7 1012.6 0.0
25/09:00pm 23.1 26.3 21.2 89 1.2 W 6 6 3 3 1012.5 1012.4 0.0
25/08:30pm 23.4 26.9 21.1 87 1.5 W 4 6 2 3 1012.0 1011.9 0.0
25/08:00pm 23.6 26.8 21.3 87 1.5 W 6 7 3 4 1011.7 1011.6 0.0
25/07:30pm 24.0 27.6 21.3 85 1.8 W 4 6 2 3 1011.4 1011.3 0.0
25/07:00pm 24.9 28.6 21.4 81 2.3 W 4 7 2 4 1011.3 1011.2 0.0
25/06:30pm 26.1 29.8 21.5 76 3.1 W 4 6 2 3 1011.1 1011.0 0.0
25/06:00pm 27.5 30.4 21.8 71 3.8 WNW 9 11 5 6 1010.8 1010.7 0.0
25/05:30pm 28.3 31.2 21.8 68 4.4 WNW 9 11 5 6 1010.6 1010.5 0.0
25/05:00pm 28.8 31.7 22.5 68 4.3 WNW 11 17 6 9 1010.5 1010.4 0.0
25/04:30pm 28.6 31.9 22.6 70 4.1 NNW 9 13 5 7 1010.5 1010.4 0.0
25/04:00pm 28.9 31.9 22.6 69 4.3 NW 11 17 6 9 1010.5 1010.4 0.0
25/03:30pm 28.8 31.7 22.5 68 4.3 NW 11 15 6 8 1010.6 1010.5 0.0
25/03:00pm 28.9 32.0 22.9 70 4.1 NNW 11 15 6 8 1010.7 1010.6 0.0
25/02:30pm 28.8 31.3 22.5 68 4.3 NW 13 17 7 9 1010.9 1010.8 0.0
25/02:00pm 28.7 31.7 22.7 70 4.1 N 11 17 6 9 1011.3 1011.2 0.0
25/01:30pm 28.9 32.0 22.2 67 4.5 NNE 9 15 5 8 1011.8 1011.7 0.0
25/01:00pm 29.1 32.3 22.3 66 4.6 ENE 9 13 5 7 1012.3 1012.2 0.0
25/12:30pm 28.4 31.3 21.7 67 4.5 E 9 15 5 8 1012.9 1012.8 0.0
25/12:00pm 28.6 31.3 20.6 62 5.3 ESE 7 11 4 6 1013.1 1013.0 0.0
25/11:30am 28.7 31.4 20.7 62 5.3 ESE 7 9 4 5 1013.1 1013.0 0.0
25/11:00am 29.1 31.9 20.8 61 5.5 SE 7 11 4 6 1013.6 1013.5 0.0
25/10:30am 28.8 32.8 22.8 70 4.1 SE 6 9 3 5 1013.9 1013.8 0.0
25/10:00am 27.8 31.4 22.1 71 3.8 SSE 6 9 3 5 1014.1 1014.0 0.0
25/09:30am 27.5 31.0 21.1 68 4.2 S 4 7 2 4 1014.1 1014.0 0.0
25/09:00am 25.7 29.2 21.8 79 2.6 S 6 7 3 4 1013.9 1013.8 0.0
25/08:30am 24.0 27.9 22.6 92 0.9 SSW 6 7 3 4 1013.7 1013.6 0.0
25/08:00am 23.4 27.4 22.7 96 0.5 NNW 6 9 3 5 1013.3 1013.2 0.0
25/07:30am 22.0 25.2 21.3 96 0.5 NNW 6 7 3 4 1013.0 1012.9 0.0
25/07:00am 21.8 24.9 21.0 95 0.5 NNW 6 6 3 3 1012.7 1012.6 0.0
25/06:30am 21.9 25.4 21.1 95 0.5 NNW 4 4 2 2 1012.5 1012.4 0.0
25/06:00am 22.0 25.2 21.2 95 0.5 NNW 6 6 3 3 1012.3 1012.2 0.0
25/05:30am 22.2 25.5 21.4 95 0.5 NNW 6 6 3 3 1012.3 1012.2 0.0
25/05:00am 22.4 26.2 21.6 95 0.5 NNW 4 4 2 2 1012.1 1012.0 0.0
25/04:30am 22.4 26.4 21.4 94 0.7 NNW 2 4 1 2 1012.0 1011.9 0.0
25/04:00am 22.8 26.8 22.0 95 0.5 NNW 4 4 2 2 1012.0 1011.9 0.0
25/03:30am 22.6 26.4 21.6 94 0.7 NNW 4 4 2 2 1012.1 1012.0 0.0
25/03:00am 22.7 27.3 21.7 94 0.7 CALM 0 0 0 0 1012.1 1012.0 0.0
25/02:30am 22.9 27.1 21.7 93 0.8 NNW 2 2 1 1 1012.2 1012.1 0.0
25/02:00am 23.3 28.0 21.9 92 0.9 CALM 0 0 0 0 1012.4 1012.3 0.0
25/01:30am 23.6 28.3 21.9 90 1.1 CALM 0 0 0 0 1012.5 1012.4 0.0
25/01:00am 24.4 29.3 22.3 88 1.4 CALM 0 0 0 0 1012.7 1012.6 0.0
25/12:30am 25.9 30.3 22.8 83 2.1 N 4 7 2 4 1012.7 1012.6 0.0
25/12:00am 26.6 29.1 23.1 81 2.4 N 15 17 8 9 1012.6 1012.5 0.0
 
Date/Time
CST
Temp
°C
App
Temp
°C
Dew
Point
°C
Rel
Hum
%
Delta-T
°C
Wind Press
QNH
hPa
Press
MSL
hPa
Rain since
9am
mm
Dir  Spd
km/h
Gust
km/h
Spd
kts
Gust
kts
24/11:30pm 26.7 28.0 23.4 82 2.3 N 22 26 12 14 1012.8 1012.7 0.0
24/11:00pm 25.6 29.2 22.1 81 2.3 SSE 6 9 3 5 1012.9 1012.8 0.0
24/10:30pm 25.3 28.4 21.0 77 2.8 SSE 6 11 3 6 1013.1 1013.0 0.0
24/10:00pm 24.4 27.8 21.7 85 1.8 SSW 6 9 3 5 1013.1 1013.0 0.0
24/09:30pm 24.8 28.0 21.7 83 2.1 SW 7 9 4 5 1012.8 1012.7 0.0
24/09:00pm 24.8 28.2 21.7 83 2.1 WSW 6 9 3 5 1012.4 1012.3 0.0
24/08:30pm 24.9 28.3 21.6 82 2.2 WSW 6 7 3 4 1012.2 1012.1 0.0
24/08:00pm 24.9 27.5 21.2 80 2.4 W 9 13 5 7 1011.4 1011.3 0.0
24/07:30pm 24.9 28.1 21.2 80 2.4 NNW 6 7 3 4 1011.1 1011.0 0.0
24/07:00pm 25.4 29.0 21.3 78 2.7 N 4 6 2 3 1010.9 1010.8 0.0
24/06:30pm 27.9 32.1 21.0 66 4.6 CALM 0 0 0 0 1010.7 1010.6 0.0
24/06:00pm 28.1 31.5 20.9 65 4.8 N 4 4 2 2 1010.4 1010.3 0.0
24/05:30pm 28.6 31.9 21.4 65 4.8 N 6 7 3 4 1010.2 1010.1 0.0
24/05:00pm 28.9 32.2 21.9 66 4.7 NW 7 9 4 5 1010.2 1010.1 0.0
24/04:30pm 29.1 32.8 23.3 71 4.0 NNW 9 13 5 7 1010.1 1010.0 0.0
24/04:00pm 29.1 32.7 23.1 70 4.1 NW 9 13 5 7 1010.0 1009.9 0.0
24/03:30pm 29.1 32.2 22.8 69 4.3 NNW 11 15 6 8 1010.2 1010.1 0.0
24/03:00pm 29.5 32.7 23.0 68 4.5 NW 11 15 6 8 1010.5 1010.4 0.0
24/02:30pm 29.4 32.7 22.6 67 4.6 NNW 9 15 5 8 1010.9 1010.8 0.0
24/02:00pm 28.8 31.2 22.3 68 4.4 NE 13 15 7 8 1011.0 1010.9 0.0
24/01:30pm 28.7 31.8 22.9 71 4.0 E 11 15 6 8 1011.7 1011.6 0.0
24/01:00pm 28.8 31.9 22.1 67 4.5 SE 9 11 5 6 1012.2 1012.1 0.0
24/12:30pm 28.6 31.7 21.1 64 5.0 SE 6 9 3 5 1012.7 1012.6 0.0
24/12:00pm 29.2 32.4 21.2 62 5.3 SE 6 6 3 3 1013.1 1013.0 0.0
24/11:30am 29.9 33.3 21.6 61 5.6 SE 6 7 3 4 1013.5 1013.4 0.0
24/11:00am 30.2 33.6 21.6 60 5.8 SE 6 7 3 4 1013.9 1013.8 0.0
24/10:30am 29.2 33.0 22.4 66 4.6 SSE 6 7 3 4 1014.1 1014.0 0.0
24/10:00am 28.5 32.5 22.7 71 3.9 SSE 6 7 3 4 1014.0 1013.9 0.0
24/09:30am 27.3 31.2 21.8 72 3.7 S 4 6 2 3 1014.1 1014.0 0.0
24/09:00am 26.3 30.6 21.9 77 2.9 S 2 4 1 2 1013.9 1013.8 0.0
24/08:30am 24.9 30.2 23.7 93 0.8 S 2 4 1 2 1013.6 1013.5 0.0
24/08:00am 23.5 28.3 22.8 96 0.5 S 2 2 1 1 1013.3 1013.2 0.0
24/07:30am 22.3 26.0 21.5 95 0.5 S 4 4 2 2 1012.9 1012.8 0.0
24/07:00am 22.1 25.7 21.3 95 0.5 S 4 4 2 2 1012.7 1012.6 0.0
24/06:30am 22.5 26.3 21.7 95 0.5 S 4 6 2 3 1012.4 1012.3 0.0
24/06:00am 22.5 26.2 21.5 94 0.7 S 4 6 2 3 1012.1 1012.0 0.0
24/05:30am 23.1 27.1 22.1 94 0.7 S 4 6 2 3 1012.0 1011.9 0.0
24/05:00am 22.6 26.4 21.6 94 0.7 S 4 4 2 2 1011.8 1011.7 0.0
24/04:30am 22.5 26.1 21.3 93 0.8 S 4 4 2 2 1011.6 1011.5 0.0
24/04:00am 22.5 27.0 21.5 94 0.7 CALM 0 0 0 0 1011.7 1011.6 0.0
24/03:30am 22.4 26.7 21.2 93 0.8 CALM 0 0 0 0 1011.7 1011.6 0.0
24/03:00am 22.7 27.2 21.5 93 0.8 CALM 0 0 0 0 1011.9 1011.8 0.0
24/02:30am 22.8 26.5 21.4 92 0.9 SSW 4 6 2 3 1011.8 1011.7 0.0
24/02:00am 23.1 26.4 21.5 91 1.1 S 6 7 3 4 1011.9 1011.8 0.0
24/01:30am 23.4 26.8 21.7 90 1.1 S 6 7 3 4 1012.0 1011.9 0.0
24/01:00am 23.7 27.2 22.1 91 1.1 SSW 7 9 4 5 1011.7 1011.6 0.0
24/12:30am 23.6 26.9 21.9 90 1.1 S 7 9 4 5 1011.7 1011.6 0.0
24/12:00am 23.9 27.5 22.0 89 1.3 S 6 7 3 4 1011.8 1011.7 0.0
 
Date/Time
CST
Temp
°C
App
Temp
°C
Dew
Point
°C
Rel
Hum
%
Delta-T
°C
Wind Press
QNH
hPa
Press
MSL
hPa
Rain since
9am
mm
Dir  Spd
km/h
Gust
km/h
Spd
kts
Gust
kts
23/11:30pm 23.9 27.6 22.2 90 1.1 S 6 7 3 4 1011.8 1011.7 0.0
23/11:00pm 24.1 27.7 22.0 88 1.4 SSW 6 9 3 5 1011.4 1011.3 0.0
23/10:30pm 24.0 27.6 22.1 89 1.3 SSW 6 11 3 6 1011.3 1011.2 0.0
23/10:00pm 24.0 27.5 21.9 88 1.4 SW 6 9 3 5 1011.2 1011.1 0.0
23/09:30pm 24.2 28.1 21.9 87 1.5 SW 4 6 2 3 1011.0 1010.9 0.0
23/09:00pm 24.4 27.9 21.9 86 1.7 SW 6 7 3 4 1010.9 1010.8 0.0
23/08:30pm 24.6 28.4 21.7 84 1.9 SW 4 6 2 3 1010.6 1010.5 0.0
23/08:00pm 24.8 28.6 21.7 83 2.1 SW 4 7 2 4 1010.4 1010.3 0.0
23/07:30pm 25.3 29.2 21.8 81 2.3 SW 4 6 2 3 1010.2 1010.1 0.0
23/07:00pm 25.7 29.5 21.6 78 2.7 SW 4 6 2 3 1010.1 1010.0 0.0
23/06:30pm 27.0 31.2 21.7 73 3.5 WSW 2 6 1 3 1009.9 1009.8 0.0
23/06:00pm 28.3 31.9 22.1 69 4.2 WSW 6 9 3 5 1009.7 1009.6 0.0
23/05:30pm 29.1 32.6 22.1 66 4.7 W 7 15 4 8 1009.7 1009.6 0.0
23/05:00pm 29.4 31.8 21.6 63 5.2 WNW 11 15 6 8 1009.6 1009.5 0.0
23/04:30pm 29.8 32.3 21.7 61 5.5 WNW 11 15 6 8 1009.6 1009.5 0.0
23/04:00pm 29.4 32.1 22.1 65 4.9 NW 11 17 6 9 1009.6 1009.5 0.0
23/03:30pm 29.6 32.6 23.3 69 4.3 NW 13 19 7 10 1009.8 1009.7 0.0
23/03:00pm 29.9 32.9 23.3 67 4.5 WNW 13 19 7 10 1010.1 1010.0 0.0
23/02:30pm 30.1 32.5 22.3 63 5.3 WNW 13 19 7 10 1010.6 1010.5 0.0
23/02:00pm 29.9 32.4 21.8 62 5.5 WNW 11 19 6 10 1011.0 1010.9 0.0
23/01:30pm 29.7 32.3 21.9 63 5.3 NW 11 15 6 8 1011.5 1011.4 0.0
23/01:00pm 28.9 32.2 22.6 69 4.3 NW 9 11 5 6 1012.0 1011.9 0.0
23/12:30pm 28.9 32.5 23.1 71 4.0 NW 9 11 5 6 1012.3 1012.2 0.0
23/12:00pm 28.6 31.6 22.6 70 4.1 WNW 11 13 6 7 1012.8 1012.7 0.0
23/11:30am 28.3 32.2 22.5 71 3.9 SW 6 6 3 3 1013.4 1013.3 0.0
23/11:00am 28.5 32.6 22.3 69 4.2 SW 4 6 2 3 1013.7 1013.6 0.0
23/10:30am 27.8 32.0 22.5 73 3.6 SW 4 6 2 3 1013.8 1013.7 0.0
23/10:00am 27.9 32.1 22.4 72 3.7 SW 4 4 2 2 1014.0 1013.9 0.0
23/09:30am 26.9 31.4 22.3 76 3.1 SW 2 4 1 2 1013.8 1013.7 0.0
23/09:00am 26.4 30.9 22.3 78 2.8 SW 2 2 1 1 1013.7 1013.6 0.0
23/08:30am 24.1 27.7 21.2 84 1.9 SW 4 6 2 3 1013.5 1013.4 0.0
23/08:00am 22.6 26.3 21.4 93 0.8 SW 4 6 2 3 1013.1 1013.0 0.0
23/07:30am 21.5 24.7 20.5 94 0.6 SW 4 6 2 3 1012.8 1012.7 0.0
23/07:00am 21.5 24.7 20.5 94 0.6 SW 4 6 2 3 1012.6 1012.5 0.0
23/06:30am 21.8 25.1 20.8 94 0.6 SW 4 6 2 3 1012.2 1012.1 0.0
23/06:00am 22.2 25.8 21.2 94 0.7 SW 4 4 2 2 1011.9 1011.8 0.0
23/05:30am 22.7 26.0 21.5 93 0.8 SW 6 7 3 4 1011.7 1011.6 0.0
23/05:00am 23.3 27.3 22.1 93 0.8 WSW 4 6 2 3 1011.5 1011.4 0.0
23/04:30am 23.5 27.5 22.1 92 0.9 WSW 4 6 2 3 1011.2 1011.1 0.0
23/04:00am 23.7 27.7 22.0 90 1.1 WSW 4 7 2 4 1011.1 1011.0 0.0
23/03:30am 24.1 28.2 22.2 89 1.3 WSW 4 7 2 4 1011.3 1011.2 0.0
23/03:00am 24.2 28.1 22.5 90 1.1 WSW 6 9 3 5 1011.7 1011.6 0.0
23/02:30am 23.6 27.5 21.9 90 1.1 WSW 4 6 2 3 1011.8 1011.7 0.0
23/02:00am 23.8 27.8 22.1 90 1.1 WSW 4 6 2 3 1011.9 1011.8 0.0
23/01:30am 24.2 28.1 21.9 87 1.5 WSW 4 7 2 4 1011.8 1011.7 0.0
23/01:00am 24.4 27.9 21.9 86 1.7 WSW 6 6 3 3 1012.0 1011.9 0.0
23/12:30am 25.0 29.0 22.1 84 1.9 W 4 7 2 4 1012.0 1011.9 0.0
23/12:00am 24.4 27.9 21.9 86 1.7 W 6 9 3 5 1012.0 1011.9 0.0
 
Date/Time
CST
Temp
°C
App
Temp
°C
Dew
Point
°C
Rel
Hum
%
Delta-T
°C
Wind Press
QNH
hPa
Press
MSL
hPa
Rain since
9am
mm
Dir  Spd
km/h
Gust
km/h
Spd
kts
Gust
kts
22/11:30pm 23.9 27.0 21.0 84 1.9 WNW 6 7 3 4 1012.0 1011.9 0.0
22/11:00pm 25.1 29.2 23.0 88 1.4 NW 6 11 3 6 1011.8 1011.7 0.0
22/10:30pm 24.0 27.2 20.5 81 2.3 WNW 4 6 2 3 1011.8 1011.7 0.0
22/10:00pm 24.4 27.7 20.7 80 2.4 WNW 4 6 2 3 1011.5 1011.4 0.0

Latest Capital City Observations: Canberra | Sydney | Melbourne | Brisbane | Adelaide | Perth | Hobart | Darwin

Other Formats:

Comma delimited format used in spreadsheet applications
http://www.bom.gov.au/fwo/IDD60901/IDD60901.99510.axf

JavaScript Object Notation format (JSON) in row-major order
http://www.bom.gov.au/fwo/IDD60901/IDD60901.99510.json